Terminal Aerodrome Forecast
Issued by NWS Melbourne, FL

Home | Current Version | Previous Version | Text Only | Print | Product List | Glossary On
Versions: 1 2 3 4 5 6 7 8 9 10 11 12 13 14 15 16 17 18
000
FTUS42 KMLB 232334
TAFMLB
TAF
KMLB 232334Z 2400/2424 15009KT P6SM VCSH SCT030 SCT080 BKN120
      TEMPO 2401/2403 3SM SHRA BKN035
     FM240300 17007KT P6SM VCSH SCT025 BKN100 BKN250
     FM240600 20004KT P6SM SCT035 BKN070
     FM241500 23007KT P6SM VCSH BKN035
     FM242100 17007KT P6SM VCTS SCT035CB BKN050=

USA.gov is the U.S. government's official web portal to all federal, state and local government web resources and services.